Accueil
METAR-TAF:

METAR-TAF

Aéroports :

Aérodrome de Foggia

Foggia, Italie

latitude: 41-25-58N, longitude: 015-32-06E, altitude: 81 m

Observation

Le bulletin a été fait il y a 57 minutes, à 15:50 UTC
Vent 9 kt de nord/nord-ouest, variant entre ouest/nord-ouest et nord
Température 29°C
Humidité 22%
Pression 1015 hPa
Visibilité 10 km ou plus
pas de nuages en-dessous de 1500 mètres et pas de cumulonimbus.

METAR: LIBF 141550Z 33009KT 290V360 CAVOK 29/05 Q1015

Heure: 18:47 (16:47 UTC)

Prévision

Le bulletin a été fait il y a 5 heures et 47 minutes, à 11:00 UTC
Prévision valable du 14 à 12 UTC au 15 à 12 UTC
Vent 12 kt de nord/nord-ouest
Visibilité 10 km ou plus
Nuages épars à une hauteur de 4000 ft
Evoluant progressivement
du 14 à 17 UTC au 14 à 19 UTC
Vent 5 kt de direction variable

TAF: LIBF 141100Z 1412/1512 34012KT 9999 SCT040 BECMG 1417/1419 VRB05KT

Observations et prévisions météorologiques de plus de 4000 aéroports (messages METAR et TAF).

Les stations disponibles sont représentées par des disques jaunes et rouges sur la carte.

Passer la souris dessus pour voir le nom de la station.

Cliquer dessus pour voir les observations et prévisions météorologiques.

Pour changer de carte: cliquez sur les boutons verts avec une croix noire pour zoomer, sur le bouton vert avec un tiret pour effectuer un zoom arrière, ou sur les flèches vertes pour les cartes adjacentes.


METAR-TAF: